Time;durP1;ratioP1;P1;durP2;ratioP2;P2;SDS_P1;SDS_P2;PMS_P1;PMS_P2;Temp;Humidity;BMP_temperature;BMP_pressure;BME280_temperature;BME280_humidity;BME280_pressure;Samples;Min_cycle;Max_cycle;Signal;HPM_P1;HPM_P2
2021/12/16 00:08:16;;;;;;;1.40;1.20;;;22.30;36.20;;;;;;5052689;28;20537;-67
2021/12/16 00:10:54;;;;;;;1.90;1.30;;;22.30;36.20;;;;;;5074396;28;20456;-67
2021/12/16 00:34:58;;;;;;;1.90;1.30;;;22.30;36.10;;;;;;5074278;28;20486;-67
2021/12/16 00:37:26;;;;;;;1.50;1.13;;;22.30;36.10;;;;;;5074010;28;20388;-67
2021/12/16 00:39:52;;;;;;;1.75;1.45;;;22.20;36.00;;;;;;5073386;28;20580;-67
2021/12/16 00:47:48;;;;;;;2.17;1.30;;;22.20;36.00;;;;;;5073935;28;20767;-67
2021/12/16 00:55:57;;;;;;;1.70;1.38;;;22.20;36.00;;;;;;5072637;28;20763;-67
2021/12/16 00:58:29;;;;;;;1.88;1.35;;;22.20;36.00;;;;;;5073524;28;20404;-67
2021/12/16 01:01:08;;;;;;;1.80;1.20;;;22.20;36.00;;;;;;5073511;28;20380;-68
2021/12/16 01:33:51;;;;;;;1.58;1.10;;;22.10;36.00;;;;;;5072990;28;20450;-68
2021/12/16 01:50:11;;;;;;;1.65;1.30;;;22.10;35.90;;;;;;5072167;28;20942;-67
2021/12/16 01:55:17;;;;;;;1.90;1.10;;;22.10;35.90;;;;;;5072383;28;20418;-68
2021/12/16 01:57:51;;;;;;;1.50;1.10;;;22.10;35.80;;;;;;5072206;28;20438;-67
2021/12/16 02:00:46;;;;;;;1.40;1.00;;;22.10;35.90;;;;;;5072383;28;20465;-67
2021/12/16 02:03:12;;;;;;;1.40;1.00;;;22.10;35.90;;;;;;5072288;28;20380;-67
2021/12/16 02:08:26;;;;;;;1.55;1.10;;;22.00;35.90;;;;;;5072245;28;20411;-67
2021/12/16 02:11:23;;;;;;;1.20;0.90;;;22.00;35.80;;;;;;5072122;28;20446;-67
2021/12/16 02:28:10;;;;;;;1.73;0.90;;;22.00;35.70;;;;;;5071841;28;20434;-67
2021/12/16 02:36:00;;;;;;;1.25;1.00;;;22.00;35.70;;;;;;5071381;28;20441;-67
2021/12/16 02:38:29;;;;;;;1.77;1.08;;;22.00;35.90;;;;;;5071800;28;20390;-67
2021/12/16 02:40:56;;;;;;;1.15;0.90;;;22.00;35.80;;;;;;5071465;28;20391;-67
2021/12/16 02:51:07;;;;;;;1.60;1.10;;;22.00;35.80;;;;;;5071550;28;20449;-67
2021/12/16 02:53:34;;;;;;;1.33;1.00;;;22.00;35.80;;;;;;5071586;28;20388;-67
2021/12/16 02:56:00;;;;;;;1.63;1.10;;;22.00;35.70;;;;;;5053123;28;20400;-67
2021/12/16 02:58:26;;;;;;;1.10;0.80;;;21.90;35.70;;;;;;5053606;28;20391;-67
2021/12/16 03:01:00;;;;;;;1.30;1.00;;;21.90;35.80;;;;;;5071403;28;20387;-67
2021/12/16 03:03:26;;;;;;;1.30;1.02;;;22.00;35.80;;;;;;5053515;28;20867;-67
2021/12/16 03:05:52;;;;;;;1.30;0.90;;;22.00;35.80;;;;;;5052951;28;20427;-67
2021/12/16 03:08:18;;;;;;;1.10;0.90;;;22.00;35.80;;;;;;5071746;28;20489;-67
2021/12/16 03:11:04;;;;;;;1.35;1.00;;;21.90;35.70;;;;;;5053534;28;20435;-67
2021/12/16 03:13:42;;;;;;;1.15;0.82;;;22.00;35.80;;;;;;5071614;28;20415;-67
2021/12/16 03:18:48;;;;;;;1.20;0.90;;;22.00;35.80;;;;;;5072934;28;20483;-67
2021/12/16 03:21:28;;;;;;;1.20;0.80;;;22.00;35.70;;;;;;5057426;28;20889;-67
2021/12/16 03:24:12;;;;;;;1.40;0.85;;;22.00;35.70;;;;;;5056960;28;20435;-67
2021/12/16 03:39:38;;;;;;;1.20;0.90;;;22.00;35.70;;;;;;5075258;28;20384;-67
2021/12/16 03:42:04;;;;;;;1.23;0.90;;;21.90;35.70;;;;;;5074579;28;20411;-67
2021/12/16 03:44:48;;;;;;;1.30;1.00;;;21.90;35.70;;;;;;5074999;28;20383;-67
2021/12/16 03:47:15;;;;;;;1.30;0.93;;;21.90;35.60;;;;;;5074888;28;20384;-67
2021/12/16 03:49:41;;;;;;;1.33;0.90;;;21.90;35.70;;;;;;5074644;28;20588;-67
2021/12/16 03:52:08;;;;;;;1.40;1.00;;;21.90;35.70;;;;;;5074613;28;20912;-67
2021/12/16 03:54:40;;;;;;;1.27;0.90;;;21.90;35.60;;;;;;5074795;28;20474;-67
2021/12/16 03:57:12;;;;;;;1.42;1.02;;;21.90;35.60;;;;;;5074784;28;20383;-67
2021/12/16 03:59:39;;;;;;;1.38;1.00;;;21.90;35.60;;;;;;5074977;28;20578;-67
2021/12/16 04:02:11;;;;;;;1.52;1.00;;;21.90;35.60;;;;;;5074641;28;20384;-67
2021/12/16 04:04:37;;;;;;;1.52;1.10;;;21.90;35.60;;;;;;5074682;28;20426;-67
2021/12/16 04:07:04;;;;;;;2.10;1.20;;;21.90;35.40;;;;;;5074469;28;20390;-67
2021/12/16 04:09:32;;;;;;;3.13;1.27;;;21.90;35.30;;;;;;5074279;28;20411;-67
2021/12/16 04:12:08;;;;;;;5.50;1.37;;;22.00;35.60;;;;;;5072686;28;20387;-67
2021/12/16 04:14:35;;;;;;;2.80;1.40;;;22.00;35.50;;;;;;5064086;28;20404;-68
2021/12/16 04:17:03;;;;;;;6.50;2.33;;;22.10;36.40;;;;;;5054964;28;20439;-68
2021/12/16 04:19:31;;;;;;;4.22;2.00;;;22.20;39.30;;;;;;5075314;28;20442;-68
2021/12/16 04:22:00;;;;;;;2.63;1.83;;;22.20;38.90;;;;;;5074367;28;20387;-67
2021/12/16 04:24:27;;;;;;;5.97;2.17;;;22.10;37.50;;;;;;5072939;28;20914;-68
2021/12/16 04:26:54;;;;;;;3.70;1.55;;;22.10;37.10;;;;;;5072811;28;20442;-68
2021/12/16 04:29:22;;;;;;;3.75;1.80;;;22.10;37.30;;;;;;5070081;28;20907;-68
2021/12/16 04:31:48;;;;;;;2.60;1.60;;;22.10;37.50;;;;;;5070970;28;20939;-68
2021/12/16 04:34:14;;;;;;;2.92;1.73;;;22.10;37.10;;;;;;5068987;28;20930;-69
2021/12/16 04:36:40;;;;;;;5.00;1.90;;;22.10;37.20;;;;;;5039612;28;20386;-68
2021/12/16 04:39:10;;;;;;;3.30;1.70;;;22.20;37.50;;;;;;5053685;28;20401;-68
2021/12/16 04:41:37;;;;;;;4.72;1.55;;;22.20;37.50;;;;;;5053854;28;20507;-67
2021/12/16 04:44:09;;;;;;;6.63;1.70;;;22.30;37.10;;;;;;5053279;28;20505;-67
2021/12/16 04:46:35;;;;;;;6.47;1.70;;;22.20;37.20;;;;;;5053656;28;20484;-67
2021/12/16 04:49:03;;;;;;;5.57;1.43;;;22.30;37.10;;;;;;5053427;28;20491;-67
2021/12/16 04:51:32;;;;;;;4.45;1.50;;;22.30;37.10;;;;;;5053869;28;20416;-68
2021/12/16 04:53:58;;;;;;;4.43;1.60;;;22.30;37.30;;;;;;5053236;28;20394;-68
2021/12/16 04:56:24;;;;;;;3.65;1.27;;;22.30;37.40;;;;;;5053957;28;20388;-67
2021/12/16 04:58:52;;;;;;;3.88;1.55;;;22.30;37.00;;;;;;5054069;28;20401;-67
2021/12/16 05:01:19;;;;;;;2.40;1.35;;;22.30;37.00;;;;;;5036728;28;20757;-67
2021/12/16 05:03:45;;;;;;;3.63;1.60;;;22.20;36.90;;;;;;5053032;28;20427;-67
2021/12/16 05:06:10;;;;;;;3.58;1.40;;;22.30;36.50;;;;;;5052775;28;20789;-67
2021/12/16 05:08:37;;;;;;;3.40;1.30;;;22.20;36.60;;;;;;5039710;28;20405;-68
2021/12/16 05:11:06;;;;;;;3.28;1.30;;;22.20;36.60;;;;;;5072648;28;20399;-68
2021/12/16 05:13:33;;;;;;;3.35;1.23;;;22.20;36.60;;;;;;5063576;28;20775;-68
2021/12/16 05:16:03;;;;;;;2.55;1.40;;;22.20;36.60;;;;;;5062263;28;20398;-67
2021/12/16 05:18:33;;;;;;;2.90;1.20;;;22.20;36.40;;;;;;5072757;28;20394;-68
2021/12/16 05:21:04;;;;;;;2.53;1.10;;;22.20;36.40;;;;;;5054779;28;20403;-68
2021/12/16 05:26:18;;;;;;;1.90;1.30;;;22.20;36.30;;;;;;5070304;28;20367;-68
2021/12/16 05:28:50;;;;;;;2.23;1.10;;;22.20;36.20;;;;;;5072582;28;20431;-67
2021/12/16 05:31:17;;;;;;;1.85;1.33;;;22.20;36.20;;;;;;5069426;28;20410;-68
2021/12/16 05:33:43;;;;;;;2.95;1.52;;;22.20;36.20;;;;;;5072641;28;20380;-68
2021/12/16 05:36:09;;;;;;;3.00;1.63;;;22.20;36.10;;;;;;5053762;28;20404;-67
2021/12/16 05:38:35;;;;;;;3.50;1.40;;;22.20;36.10;;;;;;5072914;28;20392;-67
2021/12/16 05:41:02;;;;;;;4.30;1.40;;;22.20;36.30;;;;;;5052142;28;20756;-67
2021/12/16 05:43:28;;;;;;;5.50;1.33;;;22.10;35.90;;;;;;5060588;28;20402;-68
2021/12/16 05:45:56;;;;;;;4.97;1.50;;;22.20;36.70;;;;;;5039416;28;20392;-67
2021/12/16 05:48:25;;;;;;;7.75;1.65;;;22.20;37.20;;;;;;5031307;28;20407;-67
2021/12/16 05:50:55;;;;;;;5.85;1.20;;;22.20;37.40;;;;;;5034130;28;20461;-66
2021/12/16 05:53:22;;;;;;;6.28;1.30;;;22.30;37.40;;;;;;5033146;28;20379;-67
2021/12/16 05:55:49;;;;;;;4.13;1.65;;;22.20;37.40;;;;;;5032341;28;20403;-67
2021/12/16 05:58:18;;;;;;;3.95;1.50;;;22.20;36.90;;;;;;5032698;28;20445;-67
2021/12/16 06:00:46;;;;;;;3.53;1.55;;;22.30;37.50;;;;;;5033938;28;20391;-68
2021/12/16 06:03:12;;;;;;;5.53;1.90;;;22.30;37.50;;;;;;5032108;28;20383;-68
2021/12/16 06:05:39;;;;;;;9.25;1.60;;;22.40;37.40;;;;;;5032288;28;20923;-67
2021/12/16 06:08:06;;;;;;;6.55;1.95;;;22.30;37.00;;;;;;5031645;28;20387;-67
2021/12/16 06:13:24;;;;;;;6.35;1.77;;;22.20;37.30;;;;;;5003716;28;20796;-67
2021/12/16 06:26:47;;;;;;;5.90;1.70;;;22.20;36.30;;;;;;5031732;28;20402;-67
2021/12/16 06:29:13;;;;;;;6.38;1.95;;;22.20;36.20;;;;;;5031739;28;20427;-67
2021/12/16 06:31:39;;;;;;;3.78;1.80;;;22.20;36.10;;;;;;5031804;28;20398;-67
2021/12/16 06:34:05;;;;;;;3.78;1.70;;;22.10;35.90;;;;;;5031037;28;20392;-67
2021/12/16 06:36:31;;;;;;;5.87;1.87;;;22.10;35.90;;;;;;5030205;28;20898;-67
2021/12/16 06:38:56;;;;;;;3.08;1.60;;;22.10;35.90;;;;;;5031610;28;20756;-67
2021/12/16 06:41:23;;;;;;;3.60;1.80;;;22.10;35.80;;;;;;5038869;28;20413;-67
2021/12/16 06:43:52;;;;;;;3.58;1.75;;;22.10;35.80;;;;;;5051431;28;20389;-68
2021/12/16 06:46:21;;;;;;;4.57;1.73;;;22.00;35.80;;;;;;5051258;28;20745;-67
2021/12/16 06:48:55;;;;;;;2.45;1.50;;;22.10;35.80;;;;;;5051431;28;20427;-67
2021/12/16 06:51:33;;;;;;;2.33;1.42;;;22.00;35.70;;;;;;5051392;28;20386;-67
2021/12/16 06:54:09;;;;;;;3.30;1.40;;;22.00;35.70;;;;;;5050273;28;20949;-67
2021/12/16 06:56:46;;;;;;;2.67;1.53;;;22.00;35.90;;;;;;5051507;28;21398;-67
2021/12/16 06:59:22;;;;;;;2.90;1.60;;;22.00;35.70;;;;;;5051720;28;20745;-67
2021/12/16 07:02:03;;;;;;;2.45;1.50;;;22.00;35.70;;;;;;5051382;28;20393;-67
2021/12/16 07:04:29;;;;;;;2.97;1.50;;;22.00;35.70;;;;;;5051396;28;20480;-67
2021/12/16 07:06:55;;;;;;;2.00;1.40;;;22.00;35.60;;;;;;5051218;28;20465;-67
2021/12/16 07:09:22;;;;;;;2.35;1.67;;;22.00;35.60;;;;;;5051280;28;20420;-67
2021/12/16 07:11:52;;;;;;;3.75;1.70;;;22.00;35.60;;;;;;5051252;28;20405;-67
2021/12/16 07:14:23;;;;;;;2.55;1.70;;;22.00;35.60;;;;;;5051121;28;20388;-67
2021/12/16 07:16:52;;;;;;;4.43;1.80;;;22.00;35.60;;;;;;5051213;28;20481;-67
2021/12/16 07:19:17;;;;;;;2.72;1.77;;;22.00;35.50;;;;;;5051167;28;20393;-67
2021/12/16 07:21:44;;;;;;;3.38;1.65;;;21.90;35.60;;;;;;5051174;28;20388;-67
2021/12/16 07:24:15;;;;;;;2.85;1.70;;;22.00;35.80;;;;;;5051247;28;20401;-67
2021/12/16 07:26:41;;;;;;;3.53;1.90;;;22.00;35.90;;;;;;5051130;28;20385;-67
2021/12/16 07:29:07;;;;;;;3.07;2.23;;;22.00;35.80;;;;;;5079999;28;20410;-67
2021/12/16 07:31:34;;;;;;;2.83;1.75;;;22.10;37.00;;;;;;5077158;28;20391;-67
2021/12/16 07:34:01;;;;;;;3.45;2.05;;;22.00;37.30;;;;;;5052515;28;20736;-68
2021/12/16 07:36:27;;;;;;;3.65;2.00;;;22.10;37.60;;;;;;5069957;28;20388;-68
2021/12/16 07:38:54;;;;;;;3.00;2.10;;;22.10;37.30;;;;;;5070776;28;20408;-69
2021/12/16 07:41:24;;;;;;;3.00;2.20;;;22.10;37.50;;;;;;5050857;28;20772;-69
2021/12/16 07:43:58;;;;;;;3.92;2.20;;;22.10;37.50;;;;;;5053532;28;20891;-68
2021/12/16 07:46:25;;;;;;;4.07;2.00;;;22.10;36.80;;;;;;5033631;28;20397;-68
2021/12/16 07:48:50;;;;;;;2.83;1.88;;;22.10;36.70;;;;;;5050581;28;20421;-68
2021/12/16 07:51:16;;;;;;;3.30;1.73;;;22.10;36.60;;;;;;5050009;28;20396;-68
2021/12/16 07:53:42;;;;;;;2.55;1.90;;;22.10;36.40;;;;;;5050390;28;20412;-68
2021/12/16 07:56:08;;;;;;;2.58;1.80;;;22.10;36.40;;;;;;5049596;28;20864;-69
2021/12/16 07:58:34;;;;;;;2.58;1.75;;;22.10;36.20;;;;;;5050363;28;20440;-69
2021/12/16 08:01:00;;;;;;;5.03;2.10;;;22.10;36.00;;;;;;5050247;28;20389;-68
2021/12/16 08:03:33;;;;;;;3.25;1.67;;;22.00;35.90;;;;;;5049925;28;20389;-68
2021/12/16 08:06:01;;;;;;;2.58;1.63;;;22.10;35.80;;;;;;5053569;28;20390;-68
2021/12/16 08:08:26;;;;;;;3.00;1.83;;;22.10;35.80;;;;;;5053736;28;20497;-68
2021/12/16 08:10:54;;;;;;;2.28;1.77;;;22.00;35.70;;;;;;5053770;28;20940;-68
2021/12/16 08:13:20;;;;;;;3.08;1.80;;;22.00;35.70;;;;;;5068582;28;20448;-69
2021/12/16 08:15:46;;;;;;;2.28;1.70;;;22.00;35.70;;;;;;5073642;28;20399;-68
2021/12/16 08:18:11;;;;;;;2.13;1.52;;;22.00;35.70;;;;;;5073187;28;20445;-69
2021/12/16 08:20:38;;;;;;;2.55;1.85;;;22.00;36.00;;;;;;5073367;28;20482;-68
2021/12/16 08:23:04;;;;;;;2.10;1.63;;;22.00;36.10;;;;;;5070450;28;20405;-69
2021/12/16 08:25:31;;;;;;;2.87;1.60;;;22.00;35.70;;;;;;5056781;28;20934;-69
2021/12/16 08:27:59;;;;;;;2.50;1.65;;;22.00;36.40;;;;;;5040579;28;20763;-67
2021/12/16 08:30:28;;;;;;;2.10;1.50;;;22.00;36.00;;;;;;5053371;28;20418;-68
2021/12/16 08:32:54;;;;;;;2.50;1.63;;;22.00;35.90;;;;;;5069169;28;20440;-68
2021/12/16 08:35:21;;;;;;;2.80;1.60;;;21.90;35.80;;;;;;5053689;28;20394;-67
2021/12/16 08:37:47;;;;;;;2.55;1.70;;;21.90;35.80;;;;;;5053591;28;20409;-67
2021/12/16 08:40:18;;;;;;;2.20;1.63;;;21.90;35.70;;;;;;5053094;28;20888;-67
2021/12/16 08:42:44;;;;;;;2.42;1.50;;;21.90;35.70;;;;;;5034980;28;20410;-68
2021/12/16 08:45:13;;;;;;;2.95;1.60;;;21.90;35.70;;;;;;5033416;28;20920;-67
2021/12/16 08:47:39;;;;;;;2.70;1.42;;;21.90;35.60;;;;;;5033551;28;20433;-67
2021/12/16 08:50:08;;;;;;;2.10;1.50;;;21.90;35.60;;;;;;5033369;28;20536;-68
2021/12/16 08:52:34;;;;;;;2.42;1.35;;;21.90;35.60;;;;;;5033360;28;20387;-67
2021/12/16 08:55:00;;;;;;;2.00;1.30;;;21.90;35.50;;;;;;5033204;28;20787;-67
2021/12/16 08:57:28;;;;;;;2.58;1.40;;;21.90;35.50;;;;;;5033330;28;20398;-67
2021/12/16 08:59:54;;;;;;;2.00;1.27;;;21.90;35.50;;;;;;5033194;28;20387;-67
2021/12/16 09:02:22;;;;;;;1.50;1.20;;;21.90;35.40;;;;;;5032857;28;20395;-66
2021/12/16 09:04:48;;;;;;;1.83;1.40;;;21.90;35.40;;;;;;5015279;28;20403;-67
2021/12/16 09:07:15;;;;;;;1.48;1.20;;;21.90;35.40;;;;;;5015316;28;20410;-67
2021/12/16 09:09:44;;;;;;;2.00;1.38;;;21.90;35.40;;;;;;5043054;28;20417;-67
2021/12/16 09:12:36;;;;;;;1.85;1.30;;;21.90;35.30;;;;;;5051869;28;20827;-67
2021/12/16 09:15:01;;;;;;;2.00;1.50;;;21.90;35.30;;;;;;5052829;28;20396;-66
2021/12/16 09:17:27;;;;;;;2.10;1.40;;;21.80;35.30;;;;;;5051748;28;20392;-67
2021/12/16 09:19:55;;;;;;;1.92;1.30;;;21.80;35.30;;;;;;5052643;28;20461;-67
2021/12/16 09:22:22;;;;;;;1.63;1.25;;;21.80;35.30;;;;;;5052077;28;20426;-67
2021/12/16 09:24:50;;;;;;;1.75;1.20;;;21.80;35.30;;;;;;5052413;28;20390;-67
2021/12/16 09:27:16;;;;;;;1.60;1.20;;;21.80;35.30;;;;;;5052659;28;20393;-67
2021/12/16 09:29:43;;;;;;;2.30;1.48;;;21.80;35.20;;;;;;5051808;28;20424;-67
2021/12/16 09:32:09;;;;;;;1.70;1.20;;;21.80;35.20;;;;;;5051675;28;20424;-68
2021/12/16 09:34:39;;;;;;;1.47;1.07;;;21.80;35.20;;;;;;5052230;28;20425;-67
2021/12/16 09:37:05;;;;;;;1.60;1.20;;;21.80;35.20;;;;;;5052056;28;20392;-67
2021/12/16 09:39:32;;;;;;;1.42;1.10;;;21.80;35.20;;;;;;5052452;28;20390;-67
2021/12/16 09:41:58;;;;;;;1.40;1.00;;;21.80;35.20;;;;;;5042952;28;20428;-67
2021/12/16 09:44:26;;;;;;;1.83;1.13;;;21.80;35.80;;;;;;5051743;28;20405;-67
2021/12/16 09:46:55;;;;;;;1.40;1.00;;;21.80;35.20;;;;;;5051513;28;20382;-67
2021/12/16 09:49:21;;;;;;;1.30;1.10;;;21.80;35.20;;;;;;5051816;28;20401;-67
2021/12/16 09:51:50;;;;;;;1.48;1.10;;;21.80;35.20;;;;;;5051788;28;20405;-67
2021/12/16 09:54:19;;;;;;;1.70;1.00;;;21.80;35.20;;;;;;5030089;28;20383;-67
2021/12/16 09:56:46;;;;;;;1.70;1.17;;;21.80;35.20;;;;;;5031917;28;20752;-67
2021/12/16 09:59:15;;;;;;;1.23;1.00;;;21.80;35.20;;;;;;5031982;28;20433;-67
2021/12/16 10:01:43;;;;;;;1.30;1.00;;;21.80;35.20;;;;;;5032288;28;20937;-67
2021/12/16 10:04:15;;;;;;;1.87;0.97;;;21.80;35.30;;;;;;5031467;28;20465;-67
2021/12/16 10:06:41;;;;;;;3.67;2.20;;;21.80;35.30;;;;;;5031840;28;20395;-67
2021/12/16 10:09:09;;;;;;;3.75;2.45;;;21.90;37.10;;;;;;5031709;28;21281;-67
2021/12/16 10:11:37;;;;;;;2.97;1.45;;;22.00;38.00;;;;;;5031845;28;20437;-67
2021/12/16 10:14:16;;;;;;;3.10;2.13;;;21.90;36.70;;;;;;5031437;28;20482;-67
2021/12/16 10:19:31;;;;;;;2.30;1.30;;;21.90;36.00;;;;;;5032025;28;20478;-67
2021/12/16 10:22:16;;;;;;;2.30;1.23;;;21.90;35.80;;;;;;5031421;28;20454;-67
2021/12/16 10:24:42;;;;;;;2.10;1.58;;;21.90;35.80;;;;;;5031497;28;20402;-67
2021/12/16 10:27:12;;;;;;;2.40;1.50;;;21.90;36.70;;;;;;5030630;28;20388;-67
2021/12/16 10:29:54;;;;;;;1.58;1.10;;;21.90;37.00;;;;;;5051096;28;20483;-67
2021/12/16 10:32:30;;;;;;;1.80;1.20;;;21.90;36.50;;;;;;5050254;28;20381;-67
2021/12/16 10:34:58;;;;;;;1.77;1.20;;;21.90;36.70;;;;;;5049343;28;20409;-67
2021/12/16 10:37:32;;;;;;;1.87;1.20;;;21.90;36.60;;;;;;5049984;28;20477;-67
2021/12/16 10:40:24;;;;;;;1.52;1.02;;;21.90;36.40;;;;;;5050046;28;20397;-67
2021/12/16 10:42:50;;;;;;;1.33;0.97;;;21.90;35.70;;;;;;5070235;28;20392;-67
2021/12/16 10:45:49;;;;;;;1.50;1.00;;;21.90;35.60;;;;;;5071218;28;20383;-67
2021/12/16 10:48:26;;;;;;;1.60;1.00;;;21.90;35.50;;;;;;5038503;28;20396;-67
2021/12/16 10:51:03;;;;;;;2.20;1.20;;;21.90;35.50;;;;;;5071412;28;20392;-67
2021/12/16 10:54:03;;;;;;;1.38;0.98;;;21.90;35.40;;;;;;5033199;28;20459;-68
2021/12/16 10:56:41;;;;;;;1.20;0.90;;;21.90;35.30;;;;;;5065924;28;20389;-67
2021/12/16 10:59:15;;;;;;;1.45;1.00;;;21.90;35.30;;;;;;5050851;28;20396;-67
2021/12/16 11:01:53;;;;;;;1.38;0.95;;;21.90;35.30;;;;;;5051088;28;20769;-67
2021/12/16 11:04:27;;;;;;;1.55;1.00;;;21.90;35.30;;;;;;5057839;28;20452;-67
2021/12/16 11:07:04;;;;;;;1.33;0.95;;;21.90;35.30;;;;;;5068375;28;20383;-67
2021/12/16 11:09:52;;;;;;;1.50;0.80;;;21.90;35.30;;;;;;5053031;28;20421;-67
2021/12/16 11:12:36;;;;;;;1.55;1.00;;;21.80;35.30;;;;;;5037989;28;20890;-67
2021/12/16 11:15:14;;;;;;;1.48;0.90;;;21.90;35.30;;;;;;5057846;28;20392;-67
2021/12/16 11:17:59;;;;;;;2.08;0.60;;;21.90;35.70;;;;;;5068968;28;20399;-67
2021/12/16 11:20:32;;;;;;;1.20;0.80;;;21.90;36.00;;;;;;5068991;28;20396;-67
2021/12/16 11:23:18;;;;;;;1.73;0.80;;;22.00;36.30;;;;;;5041132;28;20419;-67
2021/12/16 11:26:00;;;;;;;1.55;0.80;;;22.00;36.30;;;;;;5060385;28;20386;-67
2021/12/16 11:28:37;;;;;;;1.00;0.70;;;22.00;36.40;;;;;;5050465;28;20396;-69
2021/12/16 11:31:11;;;;;;;1.70;0.80;;;22.00;35.90;;;;;;5067172;28;20450;-68
2021/12/16 11:33:43;;;;;;;0.93;0.65;;;22.00;35.80;;;;;;5069510;28;20425;-68
2021/12/16 11:36:21;;;;;;;1.40;0.60;;;22.00;35.60;;;;;;5069048;28;20388;-69
2021/12/16 11:38:51;;;;;;;1.30;0.70;;;21.90;35.50;;;;;;5067576;28;20388;-68
2021/12/16 11:41:39;;;;;;;1.70;0.80;;;21.90;35.50;;;;;;5062449;28;20415;-67
2021/12/16 11:44:10;;;;;;;1.20;0.70;;;21.90;35.40;;;;;;5055067;28;20387;-67
2021/12/16 11:47:00;;;;;;;1.20;0.70;;;21.90;35.30;;;;;;5058153;28;20427;-68
2021/12/16 11:49:36;;;;;;;1.20;0.70;;;21.90;35.20;;;;;;5075174;28;20469;-67
2021/12/16 11:52:25;;;;;;;2.70;0.75;;;21.90;35.30;;;;;;5056508;28;20415;-67
2021/12/16 11:54:56;;;;;;;1.30;0.60;;;21.90;35.30;;;;;;5075600;28;20796;-67
2021/12/16 11:57:23;;;;;;;1.50;0.70;;;21.90;35.30;;;;;;5076604;28;20387;-67
2021/12/16 11:59:54;;;;;;;1.20;0.77;;;21.90;35.40;;;;;;5075187;28;20380;-67
2021/12/16 12:02:31;;;;;;;0.95;0.50;;;21.90;35.40;;;;;;5074661;28;20392;-67
2021/12/16 12:05:42;;;;;;;0.85;0.50;;;21.90;35.40;;;;;;5074688;28;20391;-67
2021/12/16 12:08:16;;;;;;;0.90;0.60;;;21.90;35.40;;;;;;4992287;28;20457;-67
2021/12/16 12:10:51;;;;;;;0.82;0.60;;;21.90;35.40;;;;;;5068147;28;20407;-66
2021/12/16 12:13:27;;;;;;;1.75;0.60;;;22.00;35.20;;;;;;5073876;28;20383;-66
2021/12/16 12:16:09;;;;;;;2.10;0.80;;;22.00;35.10;;;;;;5073580;28;20383;-66
2021/12/16 12:18:49;;;;;;;3.60;0.70;;;22.00;35.10;;;;;;5073234;28;20951;-66
2021/12/16 12:21:37;;;;;;;2.17;0.80;;;21.90;35.30;;;;;;5072862;28;20463;-67
2021/12/16 12:24:13;;;;;;;1.77;0.70;;;21.90;36.10;;;;;;5072729;28;20799;-67
2021/12/16 12:26:55;;;;;;;1.65;0.70;;;22.00;36.70;;;;;;5073417;28;20380;-66
2021/12/16 12:29:36;;;;;;;4.10;0.80;;;22.00;36.00;;;;;;5072355;28;20447;-67
2021/12/16 12:32:10;;;;;;;5.22;1.00;;;22.00;35.80;;;;;;5070668;28;20463;-68
2021/12/16 12:34:39;;;;;;;2.80;0.80;;;22.00;35.70;;;;;;5059034;28;20843;-68
2021/12/16 12:37:10;;;;;;;3.47;0.70;;;22.00;35.60;;;;;;5061640;28;20667;-68
2021/12/16 12:39:46;;;;;;;2.47;0.70;;;21.90;35.50;;;;;;5070227;28;20442;-68
2021/12/16 12:42:14;;;;;;;1.67;0.55;;;21.90;35.50;;;;;;5054887;28;20994;-69
2021/12/16 12:44:41;;;;;;;2.30;0.50;;;21.90;35.40;;;;;;5062524;28;20392;-68
2021/12/16 12:47:12;;;;;;;1.85;0.57;;;21.90;35.30;;;;;;5061253;28;20959;-68
2021/12/16 12:49:38;;;;;;;2.20;0.60;;;21.90;35.30;;;;;;5070342;28;20887;-68
2021/12/16 12:52:13;;;;;;;0.85;0.60;;;22.00;35.30;;;;;;5071058;28;20400;-68
2021/12/16 12:54:43;;;;;;;2.50;0.60;;;21.90;35.20;;;;;;5071721;28;20466;-68
2021/12/16 12:57:30;;;;;;;1.48;0.60;;;21.90;35.20;;;;;;5071781;28;20380;-68
2021/12/16 12:59:57;;;;;;;0.75;0.50;;;22.00;35.20;;;;;;5070328;28;20414;-68
2021/12/16 13:02:29;;;;;;;1.20;0.57;;;21.90;35.10;;;;;;5071116;28;20388;-67
2021/12/16 13:04:59;;;;;;;1.83;0.60;;;22.00;35.10;;;;;;5071391;28;20741;-68
2021/12/16 13:08:00;;;;;;;1.60;0.60;;;22.00;35.00;;;;;;5073398;28;20442;-68
2021/12/16 13:10:36;;;;;;;3.53;0.80;;;22.00;35.20;;;;;;5072442;28;20423;-68
2021/12/16 13:15:56;;;;;;;3.08;1.30;;;21.90;35.60;;;;;;5072838;28;20448;-67
2021/12/16 13:24:39;;;;;;;3.33;0.80;;;22.10;37.00;;;;;;5072505;28;20416;-68
2021/12/16 13:27:12;;;;;;;1.70;0.80;;;22.10;36.90;;;;;;5042637;28;20401;-67
2021/12/16 13:29:42;;;;;;;1.95;0.88;;;22.20;36.70;;;;;;5051457;28;20500;-67
2021/12/16 13:32:18;;;;;;;2.28;0.90;;;22.20;36.50;;;;;;5052243;28;20753;-67
2021/12/16 13:34:56;;;;;;;3.88;1.00;;;22.20;36.40;;;;;;5052238;28;20398;-67
2021/12/16 13:37:34;;;;;;;3.72;0.82;;;22.30;36.40;;;;;;5052411;28;20442;-67
2021/12/16 13:40:08;;;;;;;2.42;0.70;;;22.30;36.20;;;;;;5052422;28;20377;-66
2021/12/16 13:42:55;;;;;;;2.20;0.70;;;22.30;36.10;;;;;;5052176;28;20409;-66
2021/12/16 13:45:35;;;;;;;2.70;0.80;;;22.30;36.00;;;;;;5052386;28;20393;-67
2021/12/16 13:48:13;;;;;;;2.92;0.80;;;22.30;35.90;;;;;;5052207;28;20884;-67
2021/12/16 14:05:17;;;;;;;2.35;0.70;;;22.50;35.50;;;;;;5051773;28;20404;-67
2021/12/16 14:10:07;;;;;;;1.83;0.60;;;22.50;35.30;;;;;;5050981;28;20511;-67
2021/12/16 14:15:20;;;;;;;1.98;0.88;;;22.60;35.10;;;;;;5071447;28;20418;-67
2021/12/16 14:24:00;;;;;;;2.00;0.70;;;22.60;35.00;;;;;;5071174;28;20882;-68
2021/12/16 14:37:21;;;;;;;1.63;0.70;;;22.50;34.90;;;;;;5071370;28;20370;-68
2021/12/16 14:45:30;;;;;;;1.88;0.60;;;22.40;35.00;;;;;;5071230;28;20378;-70
2021/12/16 14:50:54;;;;;;;3.03;0.80;;;22.30;35.50;;;;;;5070755;28;20458;-70
2021/12/16 14:53:39;;;;;;;3.72;0.80;;;22.30;35.50;;;;;;5071556;28;20448;-70
2021/12/16 14:56:09;;;;;;;8.50;1.00;;;22.40;35.40;;;;;;5071389;28;20398;-70
2021/12/16 14:58:36;;;;;;;3.40;1.10;;;22.30;36.10;;;;;;5070980;28;20471;-70
2021/12/16 15:01:08;;;;;;;5.10;1.30;;;22.30;36.10;;;;;;5071473;28;20479;-69
2021/12/16 15:03:39;;;;;;;2.20;0.80;;;22.30;36.40;;;;;;5071088;28;20383;-69
2021/12/16 15:06:22;;;;;;;6.10;1.13;;;22.40;35.80;;;;;;5071101;28;20388;-69
2021/12/16 15:11:47;;;;;;;6.30;0.95;;;22.30;35.50;;;;;;5071147;28;20406;-70
2021/12/16 15:14:51;;;;;;;2.80;0.90;;;22.30;36.00;;;;;;5070314;28;20453;-69
2021/12/16 15:17:18;;;;;;;5.43;1.00;;;22.20;36.20;;;;;;5069258;28;20396;-69
2021/12/16 15:37:04;;;;;;;7.18;1.45;;;22.20;36.30;;;;;;5066221;28;20437;-69
2021/12/16 15:39:40;;;;;;;5.53;1.40;;;22.20;36.70;;;;;;5066530;28;20407;-69
2021/12/16 15:45:00;;;;;;;3.83;1.27;;;22.30;36.80;;;;;;5050624;28;20380;-69
2021/12/16 15:47:26;;;;;;;5.93;1.27;;;22.40;37.50;;;;;;5050813;28;20544;-69
2021/12/16 15:49:53;;;;;;;4.22;1.17;;;22.40;37.50;;;;;;5050470;28;20421;-69
2021/12/16 15:52:19;;;;;;;4.40;1.20;;;22.30;37.40;;;;;;5051129;28;20393;-69
2021/12/16 15:54:51;;;;;;;6.38;1.10;;;22.40;37.60;;;;;;5032485;28;20765;-69
2021/12/16 15:57:22;;;;;;;3.75;1.38;;;22.40;37.80;;;;;;5050837;28;20390;-69
2021/12/16 15:59:48;;;;;;;6.75;1.25;;;22.40;37.80;;;;;;5050188;28;20870;-69
2021/12/16 16:02:19;;;;;;;5.07;1.20;;;22.40;37.60;;;;;;5049815;28;20385;-69
2021/12/16 16:04:46;;;;;;;5.68;1.13;;;22.40;37.40;;;;;;5049757;28;20444;-70
2021/12/16 16:07:14;;;;;;;5.95;1.20;;;22.40;37.40;;;;;;5031727;28;20389;-69
2021/12/16 16:09:47;;;;;;;5.55;1.10;;;22.30;37.90;;;;;;5049985;28;20467;-69
2021/12/16 16:12:22;;;;;;;2.50;1.40;;;22.30;37.50;;;;;;5050403;28;20417;-69
2021/12/16 16:14:49;;;;;;;4.72;1.50;;;22.40;36.90;;;;;;5049355;28;20392;-69
2021/12/16 16:17:18;;;;;;;3.90;1.77;;;22.40;36.70;;;;;;5032558;28;20401;-68
2021/12/16 16:19:48;;;;;;;2.50;1.40;;;22.50;36.50;;;;;;5050723;28;20382;-70
2021/12/16 16:22:14;;;;;;;2.53;1.40;;;22.60;36.70;;;;;;5050686;28;20890;-68
2021/12/16 16:24:48;;;;;;;3.55;1.70;;;22.60;36.20;;;;;;5060443;28;20469;-69
2021/12/16 16:27:21;;;;;;;2.50;1.60;;;22.70;35.90;;;;;;5054159;28;20393;-68
2021/12/16 16:29:50;;;;;;;2.63;1.65;;;22.70;35.70;;;;;;5053886;28;20414;-68
2021/12/16 16:32:16;;;;;;;2.88;1.80;;;22.80;35.70;;;;;;5054044;28;20388;-68
2021/12/16 16:34:45;;;;;;;4.00;2.10;;;22.80;35.50;;;;;;5035312;28;20428;-68
2021/12/16 16:37:12;;;;;;;2.43;1.90;;;22.90;35.40;;;;;;5053727;28;20393;-68
2021/12/16 16:39:42;;;;;;;3.20;2.20;;;22.90;35.30;;;;;;5052613;28;20469;-68
2021/12/16 16:42:10;;;;;;;2.88;2.20;;;23.00;35.20;;;;;;5053032;28;20394;-68
2021/12/16 16:44:37;;;;;;;3.20;2.40;;;23.00;35.10;;;;;;5052812;28;20401;-69
2021/12/16 16:47:14;;;;;;;2.97;2.42;;;23.00;35.00;;;;;;5053285;28;20386;-68
2021/12/16 16:49:49;;;;;;;3.20;2.55;;;23.10;35.00;;;;;;5053658;28;20413;-69
2021/12/16 16:52:40;;;;;;;3.47;2.50;;;23.10;34.90;;;;;;5053535;28;20742;-69
2021/12/16 16:55:16;;;;;;;3.25;2.67;;;23.10;35.00;;;;;;5048386;28;20429;-69
2021/12/16 16:57:58;;;;;;;3.77;2.80;;;23.10;34.90;;;;;;5035692;28;20423;-68